Judi M. — WCX8376 — position and weather

sailwx.info

Track history (hours):
 
Tides and Currents Weather Stations Pressure Air Temp Water Temp Dewpoint Dewpoint Depression Visibility Wind Speed Wind Dir Waves Ship Positions

Judi M.

Owner: MANKE TUG & BARGE CO INC, SHELTON, WA. More information available from US FCC via Universal Licensing System and Coast Guard Vessel Documentation Center.

Last reported at 2017-Nov-23 14:07 UTC. Time now 2017-Nov-23 17:03 UTC.
Position N 47°34' W 122°22'.

Length 29 m; draft 4 m.

Type: Tow > 200 m length. MMSI: 366740920.

Date/timePositionNaut miles runAvg speedWind from/ knotsBaromVisibWave heightAir tempDewpointWater temp
2017-Nov-23 14:07N 47°34' W 122°22'0 0.1
2017-Nov-23 14:00N 47°34' W 122°22'1 2.6
2017-Nov-23 13:30N 47°36' W 122°22'1 2.9
2017-Nov-23 13:00N 47°36' W 122°24'3 5.8
2017-Nov-23 12:31N 47°38' W 122°27'3 5.4
2017-Nov-23 12:01N 47°41' W 122°28'3 5.6
2017-Nov-23 11:31N 47°44' W 122°28'3 6.3
2017-Nov-23 11:01N 47°47' W 122°27'3 6.2
2017-Nov-23 10:31N 47°50' W 122°28'3 6.1
2017-Nov-23 10:01N 47°53' W 122°29'3 5.9
2017-Nov-23 09:30N 47°56' W 122°31'3 5.7
2017-Nov-23 09:00N 47°57' W 122°35'2 4.8
2017-Nov-23 08:30N 47°59' W 122°37'  
2017-Nov-20 00:30N 47°44' W 122°26'4 8.1
2017-Nov-20 00:00N 47°40' W 122°27'4 7.2
2017-Nov-19 23:30N 47°37' W 122°24'3 6.4
2017-Nov-19 23:00N 47°34' W 122°22'0 0.1
2017-Nov-19 22:30N 47°34' W 122°22'  
2017-Nov-15 13:24N 47°34' W 122°22'0 0.0
2017-Nov-15 13:00N 47°34' W 122°22'2 3.0
2017-Nov-15 12:30N 47°36' W 122°22'2 3.5
2017-Nov-15 12:00N 47°37' W 122°24'3 6.2
2017-Nov-15 11:30N 47°39' W 122°27'3 5.5
2017-Nov-15 11:00N 47°42' W 122°28'3 5.6
2017-Nov-15 10:30N 47°45' W 122°27'3 5.6
2017-Nov-15 10:00N 47°47' W 122°27'3 5.9
2017-Nov-15 09:30N 47°50' W 122°28'3 5.8
2017-Nov-15 09:00N 47°53' W 122°30'3 6.2
2017-Nov-15 08:30N 47°56' W 122°32'4 7.5
2017-Nov-15 08:00N 47°58' W 122°36'3 0.1
2017-Nov-14 10:38N 48°01' W 122°37'1 7.8
2017-Nov-14 10:30N 48°00' W 122°36'4 8.9
2017-Nov-14 10:00N 47°57' W 122°32'3 6.2
2017-Nov-14 09:30N 47°55' W 122°28'4 7.9
2017-Nov-14 09:01N 47°51' W 122°27'4 8.6
2017-Nov-14 08:30N 47°47' W 122°26'4 8.7
2017-Nov-14 08:00N 47°42' W 122°27'4 7.9
2017-Nov-14 07:30N 47°38' W 122°27'4 7.6
2017-Nov-14 07:00N 47°37' W 122°22'2 4.2
2017-Nov-14 06:30N 47°34' W 122°22'0 0.0
2017-Nov-14 06:00N 47°34' W 122°22'  
Track history (hours):
 
Tides and Currents Weather Stations Pressure Air Temp Water Temp Dewpoint Dewpoint Depression Visibility Wind Speed Wind Dir Waves Ship Positions

Judi M.

Owner: MANKE TUG & BARGE CO INC, SHELTON, WA. More information available from US FCC via Universal Licensing System and Coast Guard Vessel Documentation Center.

Last reported at 2017-Nov-23 14:07 UTC. Time now 2017-Nov-23 17:03 UTC.
Position N 47°34' W 122°22'.

Length 29 m; draft 4 m.

Type: Tow > 200 m length. MMSI: 366740920.

Date/timePositionNaut miles runAvg speedWind from/ knotsBaromVisibWave heightAir tempDewpointWater temp
2017-Nov-23 14:07N 47°34' W 122°22'0 0.1
2017-Nov-23 14:00N 47°34' W 122°22'1 2.6
2017-Nov-23 13:30N 47°36' W 122°22'1 2.9
2017-Nov-23 13:00N 47°36' W 122°24'3 5.8
2017-Nov-23 12:31N 47°38' W 122°27'3 5.4
2017-Nov-23 12:01N 47°41' W 122°28'3 5.6
2017-Nov-23 11:31N 47°44' W 122°28'3 6.3
2017-Nov-23 11:01N 47°47' W 122°27'3 6.2
2017-Nov-23 10:31N 47°50' W 122°28'3 6.1
2017-Nov-23 10:01N 47°53' W 122°29'3 5.9
2017-Nov-23 09:30N 47°56' W 122°31'3 5.7
2017-Nov-23 09:00N 47°57' W 122°35'2 4.8
2017-Nov-23 08:30N 47°59' W 122°37'  
2017-Nov-20 00:30N 47°44' W 122°26'4 8.1
2017-Nov-20 00:00N 47°40' W 122°27'4 7.2
2017-Nov-19 23:30N 47°37' W 122°24'3 6.4
2017-Nov-19 23:00N 47°34' W 122°22'0 0.1
2017-Nov-19 22:30N 47°34' W 122°22'  
2017-Nov-15 13:24N 47°34' W 122°22'0 0.0
2017-Nov-15 13:00N 47°34' W 122°22'2 3.0
2017-Nov-15 12:30N 47°36' W 122°22'2 3.5
2017-Nov-15 12:00N 47°37' W 122°24'3 6.2
2017-Nov-15 11:30N 47°39' W 122°27'3 5.5
2017-Nov-15 11:00N 47°42' W 122°28'3 5.6
2017-Nov-15 10:30N 47°45' W 122°27'3 5.6
2017-Nov-15 10:00N 47°47' W 122°27'3 5.9
2017-Nov-15 09:30N 47°50' W 122°28'3 5.8
2017-Nov-15 09:00N 47°53' W 122°30'3 6.2
2017-Nov-15 08:30N 47°56' W 122°32'4 7.5
2017-Nov-15 08:00N 47°58' W 122°36'3 0.1
2017-Nov-14 10:38N 48°01' W 122°37'1 7.8
2017-Nov-14 10:30N 48°00' W 122°36'4 8.9
2017-Nov-14 10:00N 47°57' W 122°32'3 6.2
2017-Nov-14 09:30N 47°55' W 122°28'4 7.9
2017-Nov-14 09:01N 47°51' W 122°27'4 8.6
2017-Nov-14 08:30N 47°47' W 122°26'4 8.7
2017-Nov-14 08:00N 47°42' W 122°27'4 7.9
2017-Nov-14 07:30N 47°38' W 122°27'4 7.6
2017-Nov-14 07:00N 47°37' W 122°22'2 4.2
2017-Nov-14 06:30N 47°34' W 122°22'0 0.0
2017-Nov-14 06:00N 47°34' W 122°22'  

Dump ship's entire track history